createdAt,value
2019-05-22T00:02:06.353Z,92.10
2019-05-22T00:04:39.908Z,92.10
2019-05-22T00:07:13.594Z,92.30
2019-05-22T00:09:47.315Z,92.30
2019-05-22T00:12:20.624Z,92.30
2019-05-22T00:14:53.967Z,92.40
2019-05-22T00:17:30.340Z,92.20
2019-05-22T00:20:04.495Z,92.20
2019-05-22T00:22:38.827Z,92.00
2019-05-22T00:25:15.373Z,92.10
2019-05-22T00:27:51.734Z,92.00
2019-05-22T00:30:26.803Z,92.00
2019-05-22T00:33:01.738Z,91.90
2019-05-22T00:35:34.915Z,92.00
2019-05-22T00:38:08.870Z,92.00
2019-05-22T00:40:47.616Z,92.00
2019-05-22T00:43:22.864Z,91.90
2019-05-22T00:45:55.609Z,91.90
2019-05-22T00:48:29.777Z,91.60
2019-05-22T00:51:02.924Z,91.80
2019-05-22T00:53:37.352Z,91.90
2019-05-22T00:56:12.210Z,91.90
2019-05-22T00:58:46.532Z,92.00
2019-05-22T01:01:19.677Z,92.00
2019-05-22T01:03:52.167Z,92.20
2019-05-22T01:06:28.356Z,91.80
2019-05-22T01:09:03.710Z,91.70
2019-05-22T01:11:37.449Z,91.70
2019-05-22T01:14:10.636Z,92.00
2019-05-22T01:16:44.205Z,91.60
2019-05-22T01:19:17.608Z,91.50
2019-05-22T01:21:50.284Z,91.50
2019-05-22T01:24:24.102Z,91.40
2019-05-22T01:26:58.502Z,91.30
2019-05-22T01:29:32.551Z,91.30
2019-05-22T01:32:08.285Z,91.00
2019-05-22T01:34:41.530Z,91.00
2019-05-22T01:37:15.668Z,90.70
2019-05-22T01:40:08.200Z,90.60
2019-05-22T01:42:42.445Z,90.60
2019-05-22T01:45:17.225Z,90.60
2019-05-22T01:48:12.551Z,90.60
2019-05-22T01:50:49.833Z,90.70
2019-05-22T01:53:48.088Z,90.60
2019-05-22T01:56:21.376Z,90.60
2019-05-22T01:58:55.602Z,90.60
2019-05-22T02:01:28.576Z,90.90
2019-05-22T02:04:01.668Z,90.60
2019-05-22T02:06:48.917Z,90.60
2019-05-22T02:09:25.875Z,90.50
2019-05-22T02:12:02.776Z,90.50
2019-05-22T02:14:36.356Z,90.50
2019-05-22T02:17:11.165Z,90.40
2019-05-22T02:19:44.305Z,90.10
2019-05-22T02:22:18.273Z,90.10
2019-05-22T02:24:53.071Z,90.20
2019-05-22T02:27:27.374Z,90.10
2019-05-22T02:30:00.443Z,89.80
2019-05-22T02:32:35.076Z,90.00
2019-05-22T02:35:12.105Z,89.30
2019-05-22T02:37:58.536Z,89.20
2019-05-22T02:40:34.244Z,88.80
2019-05-22T02:43:08.225Z,88.50
2019-05-22T02:45:40.941Z,88.60
2019-05-22T02:48:36.374Z,88.50
2019-05-22T02:51:09.802Z,88.10
2019-05-22T02:53:43.340Z,87.60
2019-05-22T02:56:16.449Z,87.50
2019-05-22T02:58:50.737Z,87.50
2019-05-22T03:01:23.137Z,87.60
2019-05-22T03:04:15.630Z,87.70
2019-05-22T03:06:48.800Z,87.70
2019-05-22T03:09:23.573Z,86.90
2019-05-22T03:12:00.341Z,86.80
2019-05-22T03:14:34.984Z,87.00
2019-05-22T03:17:10.702Z,87.20
2019-05-22T03:20:04.795Z,87.30
2019-05-22T03:22:41.577Z,87.20
2019-05-22T03:25:16.733Z,87.30
2019-05-22T03:27:53.570Z,87.30
2019-05-22T03:30:30.666Z,86.80
2019-05-22T03:33:06.511Z,86.50
2019-05-22T03:35:42.096Z,85.90
2019-05-22T03:38:14.889Z,84.80
2019-05-22T03:40:50.997Z,84.70
2019-05-22T03:43:26.909Z,84.50
2019-05-22T03:46:20.269Z,83.30
2019-05-22T03:48:53.267Z,83.10
2019-05-22T03:51:26.134Z,83.60
2019-05-22T03:54:18.678Z,82.90
2019-05-22T03:56:51.945Z,83.00
2019-05-22T03:59:24.713Z,82.70
2019-05-22T04:01:57.664Z,81.80
2019-05-22T04:04:33.536Z,80.80
2019-05-22T04:07:07.916Z,81.00
2019-05-22T04:09:41.689Z,81.20
2019-05-22T04:12:14.287Z,79.80
2019-05-22T04:15:07.098Z,78.90
2019-05-22T04:17:40.862Z,78.00
2019-05-22T04:20:16.159Z,78.00
2019-05-22T04:22:49.311Z,77.10
2019-05-22T04:25:22.325Z,75.50
2019-05-22T04:27:54.878Z,76.70
2019-05-22T04:30:36.888Z,75.60
2019-05-22T04:33:09.161Z,74.70
2019-05-22T04:35:42.798Z,75.20
2019-05-22T04:38:16.483Z,76.00
2019-05-22T04:40:51.443Z,74.00
2019-05-22T04:43:25.124Z,74.80
2019-05-22T04:46:00.410Z,74.50
2019-05-22T04:48:33.864Z,76.10
2019-05-22T04:51:10.414Z,73.90
2019-05-22T04:53:43.268Z,73.80
2019-05-22T04:56:15.290Z,75.00
2019-05-22T04:58:47.494Z,74.70
2019-05-22T05:01:20.932Z,74.30
2019-05-22T05:04:12.616Z,74.40
2019-05-22T05:06:47.015Z,74.00
2019-05-22T05:09:20.428Z,73.40
2019-05-22T05:11:52.711Z,74.20
2019-05-22T05:14:24.987Z,72.90
2019-05-22T05:16:57.611Z,73.00
2019-05-22T05:19:29.986Z,73.40
2019-05-22T05:22:02.195Z,74.10
2019-05-22T05:24:34.394Z,71.80
2019-05-22T05:27:07.911Z,73.20
2019-05-22T05:29:40.270Z,72.80
2019-05-22T05:32:12.832Z,72.20
2019-05-22T05:34:49.140Z,72.40
2019-05-22T05:37:27.663Z,72.10
2019-05-22T05:40:01.409Z,71.70
2019-05-22T05:42:33.634Z,72.60
2019-05-22T05:45:07.465Z,71.40
2019-05-22T05:47:40.723Z,72.30
2019-05-22T05:50:15.356Z,70.50
2019-05-22T05:53:09.154Z,69.10
2019-05-22T05:55:44.476Z,68.80
2019-05-22T05:58:22.339Z,68.30
2019-05-22T06:00:58.137Z,66.50
2019-05-22T06:03:35.144Z,67.00
2019-05-22T06:06:10.617Z,67.60
2019-05-22T06:08:43.844Z,66.60
2019-05-22T06:11:19.726Z,66.80
2019-05-22T06:13:52.647Z,67.40
2019-05-22T06:16:28.052Z,65.80
2019-05-22T06:19:00.797Z,65.30
2019-05-22T06:21:52.910Z,65.70
2019-05-22T06:24:29.548Z,65.00
2019-05-22T06:27:07.110Z,64.10
2019-05-22T06:29:43.750Z,64.50
2019-05-22T06:32:19.887Z,64.90
2019-05-22T06:34:53.697Z,63.40
2019-05-22T06:37:29.496Z,64.60
2019-05-22T06:40:02.468Z,63.40
2019-05-22T06:42:35.077Z,62.70
2019-05-22T06:45:08.200Z,62.40
2019-05-22T06:47:41.199Z,63.10
2019-05-22T06:50:13.933Z,62.30
2019-05-22T06:52:47.483Z,60.80
2019-05-22T06:55:19.647Z,60.70
2019-05-22T06:57:51.982Z,61.00
2019-05-22T07:00:25.235Z,60.20
2019-05-22T07:02:58.100Z,60.80
2019-05-22T07:05:36.241Z,60.60
2019-05-22T07:08:10.232Z,60.00
2019-05-22T07:10:43.778Z,60.60
2019-05-22T07:16:05.080Z,58.90
2019-05-22T07:18:37.215Z,59.70
2019-05-22T07:21:10.173Z,58.00
2019-05-22T07:23:42.882Z,58.50
2019-05-22T07:26:15.632Z,58.10
2019-05-22T07:28:48.784Z,57.00
2019-05-22T07:31:21.427Z,57.90
2019-05-22T07:33:54.990Z,58.50
2019-05-22T07:36:29.908Z,57.70
2019-05-22T07:39:21.651Z,58.20
2019-05-22T07:41:54.155Z,59.10
2019-05-22T07:44:46.209Z,58.80
2019-05-22T07:47:23.213Z,57.80
2019-05-22T07:50:14.738Z,57.80
2019-05-22T07:52:48.349Z,57.70
2019-05-22T07:55:23.317Z,57.40
2019-05-22T07:57:59.110Z,57.30
2019-05-22T08:00:31.741Z,56.40
2019-05-22T08:03:05.515Z,56.60
2019-05-22T08:05:40.555Z,56.60
2019-05-22T08:08:34.334Z,56.40
2019-05-22T08:11:10.578Z,57.00
2019-05-22T08:13:56.125Z,57.00
2019-05-22T08:16:30.001Z,57.20
2019-05-22T08:19:02.865Z,56.80
2019-05-22T08:21:35.194Z,56.50
2019-05-22T08:24:09.134Z,57.20
2019-05-22T08:26:54.331Z,57.20
2019-05-22T08:29:25.872Z,57.40
2019-05-22T08:31:59.057Z,57.00
2019-05-22T08:34:31.437Z,56.70
2019-05-22T08:37:26.143Z,57.30
2019-05-22T08:39:58.394Z,57.00
2019-05-22T08:42:35.333Z,56.80
2019-05-22T08:45:15.363Z,56.50
2019-05-22T08:47:47.980Z,56.40
2019-05-22T08:50:22.032Z,55.80
2019-05-22T08:52:55.268Z,55.80
2019-05-22T08:55:27.755Z,55.90
2019-05-22T08:58:00.518Z,55.70
2019-05-22T09:00:34.229Z,55.60
2019-05-22T09:03:06.437Z,56.70
2019-05-22T09:05:38.576Z,56.30
2019-05-22T09:08:11.045Z,56.50
2019-05-22T09:10:43.735Z,56.30
2019-05-22T09:13:21.918Z,55.20
2019-05-22T09:15:53.888Z,55.00
2019-05-22T09:18:27.066Z,56.20
2019-05-22T09:21:00.982Z,55.90
2019-05-22T09:23:33.474Z,55.70
2019-05-22T09:26:07.418Z,56.20
2019-05-22T09:28:39.994Z,56.50
2019-05-22T09:31:12.278Z,56.60
2019-05-22T09:33:44.714Z,57.80
2019-05-22T09:36:21.455Z,57.70
2019-05-22T09:38:54.625Z,57.70
2019-05-22T09:41:27.659Z,58.10
2019-05-22T09:44:00.081Z,58.70
2019-05-22T09:46:52.796Z,59.20
2019-05-22T09:49:30.605Z,58.60
2019-05-22T09:52:03.203Z,59.20
2019-05-22T09:54:35.935Z,58.30
2019-05-22T09:57:09.030Z,58.30
2019-05-22T09:59:41.128Z,58.30
2019-05-22T10:02:15.134Z,57.70
2019-05-22T10:04:47.605Z,57.70
2019-05-22T10:07:21.480Z,57.50
2019-05-22T10:09:54.016Z,57.20
2019-05-22T10:12:36.351Z,57.60
2019-05-22T10:15:11.190Z,57.80
2019-05-22T10:17:46.788Z,58.50
2019-05-22T10:20:20.495Z,59.30
2019-05-22T10:23:15.985Z,59.40
2019-05-22T10:25:46.332Z,59.40
2019-05-22T10:28:19.555Z,59.10
2019-05-22T10:30:52.357Z,59.40
2019-05-22T10:33:25.798Z,60.20
2019-05-22T10:35:58.010Z,61.30
2019-05-22T10:38:31.771Z,60.70
2019-05-22T10:41:04.158Z,61.10
2019-05-22T10:43:36.587Z,61.90
2019-05-22T10:46:10.008Z,61.40
2019-05-22T10:48:43.139Z,61.80
2019-05-22T10:51:15.404Z,62.60
2019-05-22T10:53:48.352Z,62.50
2019-05-22T10:56:20.992Z,62.90
2019-05-22T10:58:53.629Z,62.80
2019-05-22T11:01:45.272Z,62.60
2019-05-22T11:04:19.781Z,61.50
2019-05-22T11:06:51.973Z,62.20
2019-05-22T11:09:24.841Z,62.20
2019-05-22T11:11:57.584Z,62.70
2019-05-22T11:14:30.730Z,63.40
2019-05-22T11:17:03.148Z,62.10
2019-05-22T11:19:35.725Z,62.80
2019-05-22T11:22:08.496Z,62.10
2019-05-22T11:24:41.155Z,62.10
2019-05-22T11:27:13.792Z,62.40
2019-05-22T11:29:46.569Z,63.60
2019-05-22T11:32:18.677Z,63.40
2019-05-22T11:34:51.152Z,63.90
2019-05-22T11:37:24.021Z,63.90
2019-05-22T11:39:56.408Z,64.60
2019-05-22T11:42:28.653Z,64.90
2019-05-22T11:45:00.903Z,65.20
2019-05-22T11:47:32.997Z,65.50
2019-05-22T11:50:14.484Z,66.60
2019-05-22T11:52:47.770Z,66.70
2019-05-22T11:55:20.389Z,67.40
2019-05-22T11:57:53.584Z,67.40
2019-05-22T12:00:27.512Z,67.40
2019-05-22T12:03:02.315Z,67.80
2019-05-22T12:05:36.283Z,68.60
2019-05-22T12:08:09.218Z,68.60
2019-05-22T12:10:41.362Z,68.70
2019-05-22T12:13:14.862Z,69.00
2019-05-22T12:15:47.332Z,69.10
2019-05-22T12:18:20.588Z,69.60
2019-05-22T12:20:52.721Z,69.60
2019-05-22T12:23:25.405Z,69.90
2019-05-22T12:25:57.967Z,70.50
2019-05-22T12:28:30.279Z,70.80
2019-05-22T12:31:03.161Z,70.80
2019-05-22T12:33:35.628Z,71.30
2019-05-22T12:36:15.230Z,71.40
2019-05-22T12:38:47.392Z,71.80
2019-05-22T12:41:21.265Z,72.10
2019-05-22T12:43:54.012Z,72.50
2019-05-22T12:46:26.929Z,72.60
2019-05-22T12:48:59.789Z,72.80
2019-05-22T12:51:35.658Z,72.70
2019-05-22T12:54:08.610Z,72.80
2019-05-22T12:56:40.762Z,73.10
2019-05-22T12:59:14.709Z,73.30
2019-05-22T13:01:48.355Z,73.30
2019-05-22T13:04:22.710Z,73.50
2019-05-22T13:06:55.797Z,73.50
2019-05-22T13:09:29.171Z,73.70
2019-05-22T13:12:01.606Z,74.20
2019-05-22T13:14:34.185Z,74.00
2019-05-22T13:17:17.023Z,74.00
2019-05-22T13:19:51.099Z,74.50
2019-05-22T13:22:25.695Z,74.20
2019-05-22T13:24:59.829Z,74.50
2019-05-22T13:27:34.180Z,74.50
2019-05-22T13:30:09.556Z,74.80
2019-05-22T13:32:44.628Z,75.10
2019-05-22T13:35:18.734Z,75.40
2019-05-22T13:40:36.024Z,76.00
2019-05-22T13:43:08.730Z,76.10
2019-05-22T13:45:41.290Z,76.10
2019-05-22T13:48:14.404Z,76.50
2019-05-22T13:50:47.863Z,76.70
2019-05-22T13:53:20.737Z,76.60
2019-05-22T13:55:53.619Z,77.00
2019-05-22T13:58:28.562Z,76.80
2019-05-22T14:01:08.880Z,77.00
2019-05-22T14:03:41.180Z,77.10
2019-05-22T14:06:21.021Z,77.00
2019-05-22T14:08:53.994Z,77.20
2019-05-22T14:11:27.371Z,77.20
2019-05-22T14:14:00.280Z,77.30
2019-05-22T14:16:48.647Z,77.90
2019-05-22T14:19:15.973Z,77.80
2019-05-22T14:21:51.509Z,77.30
2019-05-22T14:24:22.195Z,77.50
2019-05-22T14:26:58.680Z,77.60
2019-05-22T14:29:31.474Z,77.50
2019-05-22T14:32:05.586Z,77.60
2019-05-22T14:34:38.289Z,77.60
2019-05-22T14:37:12.244Z,77.80
2019-05-22T14:39:45.086Z,77.80
2019-05-22T14:42:17.799Z,78.30
2019-05-22T14:44:50.130Z,78.70
2019-05-22T14:47:23.039Z,78.20
2019-05-22T14:49:55.148Z,78.30
2019-05-22T14:52:27.618Z,78.60
2019-05-22T14:54:59.880Z,78.70
2019-05-22T14:57:32.329Z,78.70
2019-05-22T15:00:05.300Z,79.10
2019-05-22T15:02:37.953Z,78.70
2019-05-22T15:05:12.483Z,79.00
2019-05-22T15:07:44.496Z,79.10
2019-05-22T15:10:24.090Z,78.90
2019-05-22T15:12:56.535Z,78.90
2019-05-22T15:15:29.885Z,78.70
2019-05-22T15:18:02.437Z,78.80
2019-05-22T15:20:36.402Z,78.60
2019-05-22T15:23:10.311Z,78.50
2019-05-22T15:25:43.055Z,78.80
2019-05-22T15:28:15.629Z,78.90
2019-05-22T15:30:48.499Z,79.00
2019-05-22T15:33:21.017Z,79.00
2019-05-22T15:35:55.390Z,78.90
2019-05-22T15:38:28.756Z,79.10
2019-05-22T15:41:00.958Z,79.00
2019-05-22T15:43:34.618Z,79.40
2019-05-22T15:46:27.376Z,79.40
2019-05-22T15:49:00.798Z,79.40
2019-05-22T15:51:35.688Z,79.50
2019-05-22T15:54:10.143Z,79.50
2019-05-22T15:56:44.544Z,80.10
2019-05-22T15:59:18.548Z,79.20
2019-05-22T16:01:52.270Z,79.40
2019-05-22T16:04:26.260Z,79.10
2019-05-22T16:07:00.106Z,80.00
2019-05-22T16:09:34.412Z,80.30
2019-05-22T16:12:08.768Z,80.30
2019-05-22T16:14:42.623Z,80.80
2019-05-22T16:17:15.408Z,80.80
2019-05-22T16:19:48.592Z,80.70
2019-05-22T16:22:21.185Z,81.00
2019-05-22T16:24:53.792Z,81.10
2019-05-22T16:27:34.447Z,81.30
2019-05-22T16:30:08.955Z,81.30
2019-05-22T16:32:42.512Z,81.40
2019-05-22T16:35:15.427Z,81.50
2019-05-22T16:37:48.775Z,81.40
2019-05-22T16:40:21.936Z,81.20
2019-05-22T16:42:56.518Z,81.70
2019-05-22T16:45:30.692Z,81.70
2019-05-22T16:48:26.083Z,81.70
2019-05-22T16:50:45.984Z,82.10
2019-05-22T16:53:20.852Z,81.90
2019-05-22T16:55:53.354Z,82.00
2019-05-22T16:58:26.511Z,82.10
2019-05-22T17:01:02.119Z,81.90
2019-05-22T17:03:35.989Z,82.10
2019-05-22T17:06:08.725Z,82.00
2019-05-22T17:08:41.424Z,82.00
2019-05-22T17:11:13.988Z,82.00
2019-05-22T17:13:47.363Z,82.20
2019-05-22T17:16:20.067Z,82.70
2019-05-22T17:18:52.520Z,82.50
2019-05-22T17:21:25.269Z,82.80
2019-05-22T17:23:58.605Z,82.80
2019-05-22T17:26:31.453Z,82.70
2019-05-22T17:29:03.944Z,82.60
2019-05-22T17:31:36.836Z,82.70
2019-05-22T17:34:11.184Z,82.80
2019-05-22T17:36:44.543Z,82.90
2019-05-22T17:39:16.803Z,82.90
2019-05-22T17:41:49.207Z,83.10
2019-05-22T17:44:21.622Z,83.20
2019-05-22T17:46:54.267Z,83.30
2019-05-22T17:49:28.340Z,83.40
2019-05-22T17:52:01.446Z,83.70
2019-05-22T17:54:35.359Z,84.00
2019-05-22T17:57:09.106Z,83.90
2019-05-22T17:59:41.361Z,84.00
2019-05-22T18:02:15.007Z,84.70
2019-05-22T18:04:47.233Z,83.90
2019-05-22T18:07:19.633Z,83.90
2019-05-22T18:09:52.096Z,83.80
2019-05-22T18:12:24.230Z,84.10
2019-05-22T18:14:56.384Z,84.40
2019-05-22T18:17:28.618Z,84.40
2019-05-22T18:20:00.752Z,84.60
2019-05-22T18:22:33.203Z,84.50
2019-05-22T18:25:07.592Z,84.70
2019-05-22T18:27:39.803Z,84.70
2019-05-22T18:30:14.019Z,84.70
2019-05-22T18:32:46.440Z,84.50
2019-05-22T18:35:19.986Z,84.40
2019-05-22T18:37:52.099Z,84.40
2019-05-22T18:40:25.099Z,84.40
2019-05-22T18:42:57.477Z,84.20
2019-05-22T18:45:29.741Z,85.10
2019-05-22T18:48:02.119Z,85.10
2019-05-22T18:50:35.034Z,84.90
2019-05-22T18:53:07.318Z,84.70
2019-05-22T18:55:39.354Z,84.50
2019-05-22T18:58:11.722Z,84.40
2019-05-22T19:00:44.058Z,83.90
2019-05-22T19:03:16.225Z,84.10
2019-05-22T19:05:48.951Z,84.40
2019-05-22T19:08:21.519Z,84.50
2019-05-22T19:10:53.882Z,84.40
2019-05-22T19:13:27.019Z,84.50
2019-05-22T19:15:59.246Z,84.50
2019-05-22T19:18:31.295Z,84.50
2019-05-22T19:21:04.329Z,84.50
2019-05-22T19:23:36.446Z,85.00
2019-05-22T19:26:08.550Z,85.00
2019-05-22T19:28:43.921Z,85.30
2019-05-22T19:31:15.591Z,85.50
2019-05-22T19:33:48.308Z,85.40
2019-05-22T19:36:20.544Z,85.40
2019-05-22T19:38:52.566Z,85.60
2019-05-22T19:41:26.022Z,85.70
2019-05-22T19:43:59.063Z,86.10
2019-05-22T19:46:31.597Z,86.20
2019-05-22T19:49:04.076Z,86.40
2019-05-22T19:51:36.598Z,86.70
2019-05-22T19:54:10.230Z,86.80
2019-05-22T19:56:42.588Z,87.10
2019-05-22T19:59:15.027Z,87.20
2019-05-22T20:01:47.299Z,87.40
2019-05-22T20:04:20.516Z,87.40
2019-05-22T20:06:53.750Z,87.40
2019-05-22T20:09:27.380Z,87.20
2019-05-22T20:12:00.214Z,87.20
2019-05-22T20:14:33.244Z,87.20
2019-05-22T20:17:06.814Z,86.90
2019-05-22T20:19:39.443Z,86.80
2019-05-22T20:22:12.117Z,86.90
2019-05-22T20:24:44.659Z,87.10
2019-05-22T20:27:17.485Z,86.90
2019-05-22T20:29:49.517Z,86.70
2019-05-22T20:32:24.247Z,86.70
2019-05-22T20:34:56.887Z,86.60
2019-05-22T20:37:29.133Z,86.70
2019-05-22T20:40:02.290Z,86.80
2019-05-22T20:42:53.734Z,86.50
2019-05-22T20:45:26.898Z,86.30
2019-05-22T20:48:03.533Z,86.20
2019-05-22T20:50:36.783Z,86.10
2019-05-22T20:53:10.630Z,85.90
2019-05-22T20:55:45.283Z,85.80
2019-05-22T20:58:19.169Z,85.50
2019-05-22T21:00:53.530Z,85.50
2019-05-22T21:03:27.111Z,85.60
2019-05-22T21:06:01.009Z,85.60
2019-05-22T21:08:34.018Z,85.30
2019-05-22T21:11:06.612Z,84.90
2019-05-22T21:13:39.573Z,84.60
2019-05-22T21:16:11.930Z,84.90
2019-05-22T21:18:45.839Z,84.70
2019-05-22T21:21:19.557Z,84.70
2019-05-22T21:23:51.921Z,84.10
2019-05-22T21:26:24.188Z,84.00
2019-05-22T21:28:57.041Z,83.90
2019-05-22T21:31:31.053Z,83.80
2019-05-22T21:34:03.521Z,83.70
2019-05-22T21:36:35.716Z,83.60
2019-05-22T21:39:12.921Z,83.50
2019-05-22T21:41:45.651Z,83.40
2019-05-22T21:44:19.142Z,83.40
2019-05-22T21:46:52.010Z,83.30
2019-05-22T21:49:25.668Z,83.50
2019-05-22T21:51:58.149Z,83.20
2019-05-22T21:54:31.340Z,83.30
2019-05-22T21:57:05.417Z,83.40
2019-05-22T21:59:37.896Z,83.50
2019-05-22T22:02:32.353Z,83.40
2019-05-22T22:05:06.275Z,83.60
2019-05-22T22:07:38.928Z,83.40
2019-05-22T22:10:13.545Z,83.70
2019-05-22T22:12:49.331Z,83.60
2019-05-22T22:15:23.661Z,83.70
2019-05-22T22:17:56.369Z,83.90
2019-05-22T22:20:28.361Z,84.10
2019-05-22T22:23:01.894Z,84.50
2019-05-22T22:25:34.191Z,84.40
2019-05-22T22:28:06.319Z,84.30
2019-05-22T22:30:40.148Z,84.50
2019-05-22T22:33:17.032Z,84.70
2019-05-22T22:35:50.951Z,84.90
2019-05-22T22:38:26.397Z,84.80
2019-05-22T22:41:00.696Z,84.90
2019-05-22T22:43:34.814Z,84.80
2019-05-22T22:46:09.090Z,84.60
2019-05-22T22:48:42.893Z,85.20
2019-05-22T22:51:16.822Z,85.10
2019-05-22T22:53:49.288Z,85.20
2019-05-22T22:56:22.958Z,85.40
2019-05-22T22:58:55.963Z,85.60
2019-05-22T23:01:32.462Z,85.50
2019-05-22T23:04:07.540Z,85.90
2019-05-22T23:06:40.074Z,86.00
2019-05-22T23:09:13.826Z,86.10
2019-05-22T23:12:05.564Z,86.20
2019-05-22T23:14:42.137Z,87.10
2019-05-22T23:17:15.933Z,86.40
2019-05-22T23:19:47.900Z,86.60
2019-05-22T23:22:19.259Z,86.70
2019-05-22T23:24:52.964Z,87.00
2019-05-22T23:27:26.430Z,87.40
2019-05-22T23:29:59.099Z,87.40
2019-05-22T23:32:32.300Z,87.50
2019-05-22T23:35:05.087Z,87.60
2019-05-22T23:37:38.414Z,87.50
2019-05-22T23:40:12.280Z,87.40
2019-05-22T23:42:46.947Z,87.30
2019-05-22T23:45:21.989Z,87.20
2019-05-22T23:47:58.049Z,86.90
2019-05-22T23:50:33.078Z,86.80
2019-05-22T23:53:06.541Z,86.60
2019-05-22T23:55:40.110Z,86.20
2019-05-22T23:58:15.661Z,86.30
